Time;durP1;ratioP1;P1;durP2;ratioP2;P2;SDS_P1;SDS_P2;PMS_P1;PMS_P2;Temp;Humidity;BMP_temperature;BMP_pressure;BME280_temperature;BME280_humidity;BME280_pressure;Samples;Min_cycle;Max_cycle;Signal;HPM_P1;HPM_P2
2022/02/21 00:00:53;;;;;;;7.85;3.42;;;;;;;26.13;29.46;95580.41;5001243;28;20045;-29
2022/02/21 00:03:21;;;;;;;10.32;3.28;;;;;;;26.13;29.60;95570.75;5000745;28;20025;-31
2022/02/21 00:05:50;;;;;;;7.45;3.50;;;;;;;26.13;29.64;95559.41;4999389;28;20114;-28
2022/02/21 00:08:16;;;;;;;14.50;2.97;;;;;;;26.14;29.44;95561.06;4983519;28;20075;-29
2022/02/21 00:10:41;;;;;;;8.02;3.20;;;;;;;26.13;29.56;95559.41;4999147;28;20025;-31
2022/02/21 00:13:07;;;;;;;9.05;3.50;;;;;;;26.13;29.60;95559.41;4999987;28;20476;-31
2022/02/21 00:15:32;;;;;;;9.88;3.28;;;;;;;26.13;29.49;95546.28;4997833;28;20560;-34
2022/02/21 00:17:57;;;;;;;9.25;3.25;;;;;;;26.12;29.51;95534.09;5001485;28;20025;-29
2022/02/21 00:20:23;;;;;;;8.07;3.15;;;;;;;26.13;29.46;95528.75;5003743;28;20072;-33
2022/02/21 00:22:49;;;;;;;6.63;3.00;;;;;;;26.13;29.46;95525.25;5003196;28;20021;-29
2022/02/21 00:25:14;;;;;;;7.95;3.17;;;;;;;26.12;29.62;95506.03;5008487;28;20104;-32
2022/02/21 00:27:40;;;;;;;6.50;3.08;;;;;;;26.12;29.49;95505.22;5006486;28;20072;-29
2022/02/21 00:30:06;;;;;;;9.35;3.00;;;;;;;26.12;29.55;95511.28;5006977;28;20025;-33
2022/02/21 00:32:31;;;;;;;5.47;2.88;;;;;;;26.12;29.52;95499.97;5006699;28;20057;-29
2022/02/21 00:34:57;;;;;;;7.43;3.35;;;;;;;26.11;29.53;95499.13;5006786;28;20708;-30
2022/02/21 00:37:22;;;;;;;6.90;3.40;;;;;;;26.12;29.41;95502.59;5009582;28;20060;-29
2022/02/21 00:39:48;;;;;;;6.45;2.75;;;;;;;26.12;29.50;95489.47;5008453;28;20029;-30
2022/02/21 00:42:13;;;;;;;5.60;2.70;;;;;;;26.12;29.64;95489.47;5001777;28;20025;-35
2022/02/21 00:44:40;;;;;;;5.43;2.53;;;;;;;26.12;29.54;95489.47;4999795;28;20034;-31
2022/02/21 00:47:06;;;;;;;5.43;2.85;;;;;;;26.10;29.53;95493.03;4996287;28;20029;-33
2022/02/21 00:49:32;;;;;;;6.45;2.92;;;;;;;26.10;29.53;95487.78;5000365;28;20052;-29
2022/02/21 00:51:58;;;;;;;5.80;2.90;;;;;;;26.10;29.46;95487.78;4998992;28;20187;-33
2022/02/21 00:54:26;;;;;;;6.45;2.78;;;;;;;26.10;29.35;95482.53;4998433;28;20137;-29
2022/02/21 00:56:51;;;;;;;6.53;2.80;;;;;;;26.11;29.42;95488.63;5000075;28;20026;-32
2022/02/21 00:59:16;;;;;;;6.40;2.97;;;;;;;26.12;29.38;95471.09;5006088;28;20407;-31
2022/02/21 01:01:42;;;;;;;5.85;3.10;;;;;;;26.10;29.54;95461.53;5005819;28;20403;-33
2022/02/21 01:04:07;;;;;;;4.88;2.70;;;;;;;26.10;29.54;95445.75;5006728;28;20037;-31
2022/02/21 01:06:33;;;;;;;7.20;2.95;;;;;;;26.10;29.38;95435.25;5007037;28;20057;-31
2022/02/21 01:08:58;;;;;;;4.63;2.70;;;;;;;26.10;29.24;95429.19;5006397;28;20377;-28
2022/02/21 01:11:24;;;;;;;5.63;2.97;;;;;;;26.11;29.50;95425.63;5010532;28;20029;-32
2022/02/21 01:13:50;;;;;;;6.25;2.85;;;;;;;26.10;29.46;95413.44;5006364;28;20029;-32
2022/02/21 01:16:15;;;;;;;6.25;2.67;;;;;;;26.10;29.36;95398.50;5005812;28;20033;-32
2022/02/21 01:18:41;;;;;;;8.27;3.00;;;;;;;26.11;29.54;95404.59;5007333;28;20411;-33
2022/02/21 01:21:08;;;;;;;7.00;3.03;;;;;;;26.09;29.52;95391.59;5007138;28;20037;-29
2022/02/21 01:23:35;;;;;;;5.80;2.60;;;;;;;26.10;29.34;95376.69;5005624;28;20393;-30
2022/02/21 01:26:00;;;;;;;5.82;2.83;;;;;;;26.09;29.50;95386.34;5009479;28;20079;-36
2022/02/21 01:28:25;;;;;;;10.15;2.90;;;;;;;26.09;29.51;95361.91;5003719;28;20030;-32
2022/02/21 01:30:51;;;;;;;6.85;3.03;;;;;;;26.10;29.42;95353.06;5006076;28;20022;-34
2022/02/21 01:33:17;;;;;;;4.63;2.63;;;;;;;26.09;29.32;95344.34;5001628;28;20032;-31
2022/02/21 01:35:42;;;;;;;4.50;2.50;;;;;;;26.08;29.35;95332.19;5007159;28;20030;-35
2022/02/21 01:38:08;;;;;;;8.20;2.78;;;;;;;26.09;29.33;95338.28;5004839;28;20036;-33
2022/02/21 01:40:33;;;;;;;5.53;2.72;;;;;;;26.09;29.43;95331.22;5002629;28;21292;-35
2022/02/21 01:42:59;;;;;;;6.45;2.70;;;;;;;26.08;29.49;95305.91;5003690;28;20514;-31
2022/02/21 01:45:24;;;;;;;5.20;2.70;;;;;;;26.09;29.47;95298.91;4999804;28;21185;-31
2022/02/21 01:47:49;;;;;;;4.80;2.83;;;;;;;26.08;29.37;95297.19;5001452;28;20511;-30
2022/02/21 01:50:15;;;;;;;6.35;2.40;;;;;;;26.08;29.36;95305.91;5003644;28;20037;-29
2022/02/21 01:52:40;;;;;;;5.25;2.47;;;;;;;26.08;29.27;95286.69;5003025;28;20056;-31
2022/02/21 01:55:06;;;;;;;3.95;2.33;;;;;;;26.08;29.25;95290.16;4987345;28;20206;-29
2022/02/21 01:57:32;;;;;;;5.80;2.50;;;;;;;26.08;29.41;95298.03;4983472;28;20067;-34
2022/02/21 01:59:57;;;;;;;4.80;2.38;;;;;;;26.07;29.32;95293.75;5001679;28;20030;-31
2022/02/21 02:02:23;;;;;;;5.00;2.40;;;;;;;26.08;29.49;95273.56;5004583;28;20408;-29
2022/02/21 02:04:48;;;;;;;4.70;2.50;;;;;;;26.08;29.31;95273.56;5002628;28;20040;-33
2022/02/21 02:07:14;;;;;;;4.82;2.58;;;;;;;26.06;29.44;95268.47;5002295;28;20150;-30
2022/02/21 02:09:40;;;;;;;3.03;2.05;;;;;;;26.07;29.38;95266.66;5002490;28;20098;-30
2022/02/21 02:12:09;;;;;;;6.63;2.60;;;;;;;26.07;29.30;95258.78;4985712;28;20691;-31
2022/02/21 02:14:39;;;;;;;4.00;2.40;;;;;;;26.06;29.46;95229.09;5003847;28;20030;-30
2022/02/21 02:17:09;;;;;;;5.63;2.20;;;;;;;26.07;29.34;95224.66;5004607;28;20543;-31
2022/02/21 02:19:34;;;;;;;4.05;2.33;;;;;;;26.06;29.43;95212.50;5007012;28;20033;-31
2022/02/21 02:22:20;;;;;;;7.75;2.38;;;;;;;26.06;29.42;95208.09;5001526;28;20037;-31
2022/02/21 02:24:47;;;;;;;4.57;2.35;;;;;;;26.05;29.44;95211.66;5004662;28;20039;-33
2022/02/21 02:27:12;;;;;;;4.68;2.25;;;;;;;26.05;29.25;95195.91;5000497;28;20029;-35
2022/02/21 02:29:38;;;;;;;5.57;2.47;;;;;;;26.05;29.42;95202.97;5001723;28;20033;-31
2022/02/21 02:32:04;;;;;;;4.22;2.38;;;;;;;26.05;29.44;95201.16;5002928;28;20022;-30
2022/02/21 02:34:30;;;;;;;3.60;2.20;;;;;;;26.04;29.39;95194.25;5001296;28;20033;-30
2022/02/21 02:36:55;;;;;;;5.65;2.28;;;;;;;26.04;29.32;95190.78;5004203;28;20041;-33
2022/02/21 02:39:23;;;;;;;4.97;2.20;;;;;;;26.04;29.43;95173.25;5002869;28;20220;-30
2022/02/21 02:41:48;;;;;;;3.80;2.15;;;;;;;26.03;29.32;95176.84;5002067;28;20029;-31
2022/02/21 02:44:14;;;;;;;5.05;2.03;;;;;;;26.03;29.38;95161.09;4966217;28;20092;-33
2022/02/21 02:46:39;;;;;;;3.30;2.00;;;;;;;26.04;29.40;95157.50;4996734;28;20033;-33
2022/02/21 02:49:05;;;;;;;3.67;1.85;;;;;;;26.04;29.35;95147.00;5000632;28;20029;-31
2022/02/21 02:51:30;;;;;;;3.35;2.13;;;;;;;26.01;29.40;95152.47;5002581;28;20091;-31
2022/02/21 02:53:55;;;;;;;5.38;2.08;;;;;;;26.04;29.36;95131.25;5002037;28;20112;-32
2022/02/21 02:56:21;;;;;;;3.30;1.92;;;;;;;26.04;29.36;95125.16;5004543;28;20029;-32
2022/02/21 02:58:46;;;;;;;3.22;1.80;;;;;;;26.04;29.28;95128.63;5001857;28;21034;-32
2022/02/21 03:01:11;;;;;;;3.80;2.03;;;;;;;26.03;29.50;95124.34;5002102;28;20041;-30
2022/02/21 03:03:38;;;;;;;3.60;1.92;;;;;;;26.05;29.18;95126.84;5000949;28;20041;-31
2022/02/21 03:06:03;;;;;;;4.97;1.88;;;;;;;26.02;29.31;95117.44;5000004;28;20025;-30
2022/02/21 03:08:29;;;;;;;5.28;2.10;;;;;;;26.03;29.29;95116.47;5000833;28;20508;-29
2022/02/21 03:10:54;;;;;;;7.72;2.20;;;;;;;26.04;29.33;95104.16;5001586;28;20041;-29
2022/02/21 03:13:19;;;;;;;4.85;2.13;;;;;;;26.02;29.17;95106.94;5000128;28;20029;-29
2022/02/21 03:15:45;;;;;;;3.38;1.92;;;;;;;26.04;29.10;95106.78;5000663;28;20907;-32
2022/02/21 03:18:10;;;;;;;2.65;1.80;;;;;;;26.04;29.18;95080.53;5002129;28;20055;-31
2022/02/21 03:20:35;;;;;;;3.03;1.88;;;;;;;26.04;29.32;95088.41;5003991;28;20033;-33
2022/02/21 03:23:01;;;;;;;5.25;1.77;;;;;;;26.04;29.29;95120.75;4998417;28;20040;-31
2022/02/21 03:25:27;;;;;;;3.90;1.60;;;;;;;26.03;29.27;95129.59;4999951;28;20032;-31
2022/02/21 03:27:52;;;;;;;3.88;1.92;;;;;;;26.03;29.12;95121.72;4984618;28;20040;-31
2022/02/21 03:30:17;;;;;;;3.38;1.80;;;;;;;26.03;29.12;95147.97;5001452;28;20029;-30
2022/02/21 03:32:43;;;;;;;2.83;1.80;;;;;;;26.04;29.24;95152.25;5009013;28;20124;-33
2022/02/21 03:35:08;;;;;;;3.42;1.70;;;;;;;26.03;29.18;95161.09;4999788;28;20036;-31
2022/02/21 03:37:35;;;;;;;3.95;1.90;;;;;;;26.03;29.11;95202.22;5001901;28;20127;-31
2022/02/21 03:40:02;;;;;;;2.45;1.75;;;;;;;26.03;29.19;95271.31;5003080;28;20033;-31
2022/02/21 03:42:28;;;;;;;4.97;1.52;;;;;;;26.02;29.16;95343.16;5000816;28;20039;-31
2022/02/21 03:44:53;;;;;;;2.67;1.25;;;;;;;26.03;29.14;95339.56;5000154;28;20037;-31
2022/02/21 03:47:18;;;;;;;8.07;1.40;;;;;;;26.02;29.17;95358.91;5001324;28;20033;-32
2022/02/21 03:49:45;;;;;;;4.07;1.63;;;;;;;26.01;29.14;95383.47;5004434;28;20037;-31
2022/02/21 03:52:11;;;;;;;2.95;1.60;;;;;;;26.02;29.00;95384.31;5002671;28;20597;-33
2022/02/21 03:54:36;;;;;;;2.70;1.70;;;;;;;26.01;28.95;95407.09;5001935;28;20033;-33
2022/02/21 03:57:02;;;;;;;5.00;1.25;;;;;;;26.03;28.89;95417.47;5009284;28;20029;-31
2022/02/21 03:59:27;;;;;;;2.70;1.48;;;;;;;26.02;28.99;95440.28;4986503;28;20029;-33
2022/02/21 04:01:52;;;;;;;4.75;1.40;;;;;;;26.02;29.03;95468.31;5008041;28;20059;-34
2022/02/21 04:04:18;;;;;;;3.10;1.52;;;;;;;26.03;28.88;95464.72;5008796;28;20532;-30
2022/02/21 04:06:43;;;;;;;3.72;1.33;;;;;;;26.01;28.96;95450.91;5008549;28;20038;-32
2022/02/21 04:09:09;;;;;;;2.83;1.58;;;;;;;26.02;28.93;95498.03;5007962;28;20596;-30
2022/02/21 04:11:34;;;;;;;2.78;1.40;;;;;;;26.01;28.90;95498.97;5001886;28;20037;-32
2022/02/21 04:13:59;;;;;;;2.30;1.55;;;;;;;26.02;28.78;95502.44;4998817;28;20488;-35
2022/02/21 04:16:31;;;;;;;2.42;1.45;;;;;;;26.02;28.93;95500.66;5001262;28;20091;-32
2022/02/21 04:18:57;;;;;;;2.40;1.50;;;;;;;26.01;28.87;95503.41;5000053;28;21344;-33
2022/02/21 04:21:22;;;;;;;3.15;1.77;;;;;;;26.01;28.88;95514.72;5005706;28;20040;-32
2022/02/21 04:23:48;;;;;;;1.95;1.17;;;;;;;26.01;28.75;95521.78;5000387;28;20179;-32
2022/02/21 04:26:13;;;;;;;3.50;1.52;;;;;;;26.00;28.71;95502.53;5000707;28;20025;-30
2022/02/21 04:28:39;;;;;;;5.15;1.40;;;;;;;25.98;28.73;95485.25;4999444;28;20025;-29
2022/02/21 04:31:04;;;;;;;3.00;1.52;;;;;;;26.00;28.88;95491.22;4998934;28;20059;-33
2022/02/21 04:33:29;;;;;;;3.85;1.35;;;;;;;25.98;28.83;95499.22;4999859;28;20033;-31
2022/02/21 04:35:55;;;;;;;2.40;1.30;;;;;;;26.00;28.74;95472.84;4997718;28;20480;-30
2022/02/21 04:38:20;;;;;;;3.55;1.42;;;;;;;25.99;28.82;95427.38;5004229;28;20036;-33
2022/02/21 04:40:48;;;;;;;2.13;1.38;;;;;;;26.00;28.82;95394.09;5006824;28;20045;-32
2022/02/21 04:43:14;;;;;;;2.28;1.23;;;;;;;25.98;28.76;95399.47;5007558;28;20037;-31
2022/02/21 04:45:39;;;;;;;1.65;1.20;;;;;;;25.96;28.71;95417.09;4993472;28;20103;-33
2022/02/21 04:48:04;;;;;;;2.00;1.20;;;;;;;25.96;28.64;95411.84;5005570;28;20029;-34
2022/02/21 04:50:30;;;;;;;1.95;1.30;;;;;;;25.95;28.94;95399.69;4988139;28;20025;-32
2022/02/21 04:52:55;;;;;;;2.42;1.25;;;;;;;25.96;28.64;95411.84;5006194;28;20338;-30
2022/02/21 04:55:21;;;;;;;2.60;1.40;;;;;;;25.94;28.75;95427.72;5006582;28;20032;-30
2022/02/21 04:57:46;;;;;;;3.08;1.33;;;;;;;25.95;28.73;95454.81;5008101;28;20021;-30
2022/02/21 05:00:13;;;;;;;2.47;1.02;;;;;;;25.94;28.79;95432.97;5007083;28;20530;-29
2022/02/21 05:02:38;;;;;;;2.05;1.35;;;;;;;25.94;28.60;95432.16;5007085;28;20044;-36
2022/02/21 05:05:04;;;;;;;2.50;1.23;;;;;;;25.94;28.86;95416.41;5006586;28;20033;-30
2022/02/21 05:07:30;;;;;;;2.50;1.05;;;;;;;25.93;28.65;95438.34;5003271;28;20022;-33
2022/02/21 05:09:55;;;;;;;4.57;1.25;;;;;;;25.93;28.75;95456.72;5003870;28;20107;-30
2022/02/21 05:12:21;;;;;;;6.90;1.27;;;;;;;25.92;28.77;95478.66;4999684;28;20588;-30
2022/02/21 05:14:46;;;;;;;2.33;1.20;;;;;;;25.92;28.53;95479.50;5000081;28;20025;-31
2022/02/21 05:17:11;;;;;;;3.60;1.70;;;;;;;25.92;28.74;95476.03;5000188;28;20532;-32
2022/02/21 05:19:37;;;;;;;2.50;1.10;;;;;;;25.91;28.73;95462.09;4999275;28;20037;-33
2022/02/21 05:22:03;;;;;;;2.85;1.40;;;;;;;25.90;28.68;95456.94;4998858;28;20029;-30
2022/02/21 05:24:28;;;;;;;2.80;1.10;;;;;;;25.91;28.69;95453.38;5001212;28;20029;-32
2022/02/21 05:26:53;;;;;;;3.15;1.48;;;;;;;25.91;28.47;95459.47;4999463;28;20455;-30
2022/02/21 05:29:19;;;;;;;2.17;1.10;;;;;;;25.90;28.75;95465.63;4985483;28;20065;-31
2022/02/21 05:31:46;;;;;;;3.25;1.30;;;;;;;25.89;28.58;95448.22;5003357;28;20065;-33
2022/02/21 05:34:12;;;;;;;2.97;1.42;;;;;;;25.90;28.56;95459.56;5005755;28;20060;-34
2022/02/21 05:36:37;;;;;;;1.30;0.82;;;;;;;25.90;28.72;95459.56;4999785;28;20037;-33
2022/02/21 05:39:03;;;;;;;2.33;1.17;;;;;;;25.90;28.54;95435.94;5000886;28;20041;-32
2022/02/21 05:41:29;;;;;;;1.90;1.17;;;;;;;25.90;28.64;95434.16;4999500;28;20026;-36
2022/02/21 05:43:54;;;;;;;2.38;1.38;;;;;;;25.89;28.52;95458.72;4999934;28;20432;-32
2022/02/21 05:46:20;;;;;;;3.30;1.38;;;;;;;25.90;28.62;95496.31;5000331;28;20496;-35
2022/02/21 05:48:45;;;;;;;2.35;1.23;;;;;;;25.88;28.50;95485.94;4998406;28;20029;-32
2022/02/21 05:51:11;;;;;;;3.50;1.05;;;;;;;25.89;28.64;95490.22;4997970;28;20123;-34
2022/02/21 05:53:39;;;;;;;1.77;1.00;;;;;;;25.89;28.49;95474.47;5000385;28;20033;-32
2022/02/21 05:56:04;;;;;;;3.15;1.38;;;;;;;25.89;28.63;95484.16;5003628;28;20030;-30
2022/02/21 05:58:30;;;;;;;3.40;1.35;;;;;;;25.88;28.57;95467.56;5001692;28;20392;-30
2022/02/21 06:00:55;;;;;;;2.45;1.23;;;;;;;25.88;28.45;95471.97;5005559;28;20021;-30
2022/02/21 06:03:21;;;;;;;2.03;1.15;;;;;;;25.88;28.60;95469.34;5007309;28;21042;-36
2022/02/21 06:05:46;;;;;;;3.13;1.40;;;;;;;25.89;28.46;95499.91;5005971;28;20060;-31
2022/02/21 06:08:14;;;;;;;2.42;1.20;;;;;;;25.88;28.59;95522.66;5002491;28;20409;-32
2022/02/21 06:10:40;;;;;;;1.88;1.20;;;;;;;25.88;28.47;95519.19;4987643;28;20034;-29
2022/02/21 06:13:05;;;;;;;4.38;1.75;;;;;;;25.87;28.63;95513.13;5004354;28;20040;-32
2022/02/21 06:15:31;;;;;;;2.25;1.13;;;;;;;25.87;28.47;95500.00;5004702;28;20079;-34
2022/02/21 06:17:58;;;;;;;2.92;1.30;;;;;;;25.87;28.47;95507.03;5006408;28;20083;-32
2022/02/21 06:20:24;;;;;;;2.75;1.40;;;;;;;25.87;28.59;95528.03;5004594;28;20107;-28
2022/02/21 06:22:50;;;;;;;2.00;1.40;;;;;;;25.87;28.60;95544.63;5006762;28;20033;-31
2022/02/21 06:25:15;;;;;;;1.95;1.25;;;;;;;25.87;28.42;95549.03;5008416;28;20040;-30
2022/02/21 06:27:41;;;;;;;3.13;1.20;;;;;;;25.87;28.50;95546.41;5011866;28;20029;-28
2022/02/21 06:30:07;;;;;;;2.10;1.20;;;;;;;25.86;28.52;95549.97;5014185;28;20309;-30
2022/02/21 06:32:32;;;;;;;1.85;1.20;;;;;;;25.87;28.46;95559.53;5015669;28;20041;-36
2022/02/21 06:34:58;;;;;;;3.85;1.00;;;;;;;25.85;28.52;95556.19;5011992;28;20041;-30
2022/02/21 06:37:23;;;;;;;1.70;1.10;;;;;;;25.85;28.64;95556.19;5013186;28;20053;-32
2022/02/21 06:39:49;;;;;;;3.53;1.20;;;;;;;25.85;28.71;95582.44;5013910;28;20025;-32
2022/02/21 06:42:14;;;;;;;1.55;1.05;;;;;;;25.86;28.44;95605.09;5013956;28;20083;-32
2022/02/21 06:44:39;;;;;;;3.00;1.30;;;;;;;25.86;28.43;95610.34;5016781;28;20029;-31
2022/02/21 06:47:05;;;;;;;2.75;1.23;;;;;;;25.86;28.59;95610.34;5010294;28;20030;-34
2022/02/21 06:49:31;;;;;;;2.30;1.10;;;;;;;25.85;28.50;95604.25;5012926;28;20033;-30
2022/02/21 06:51:56;;;;;;;2.67;1.25;;;;;;;25.85;28.41;95611.31;5014307;28;20030;-31
2022/02/21 06:54:22;;;;;;;2.95;1.50;;;;;;;25.86;28.30;95631.34;5016323;28;20029;-32
2022/02/21 06:56:48;;;;;;;3.00;1.48;;;;;;;25.84;28.35;95634.06;5012772;28;20442;-32
2022/02/21 06:59:13;;;;;;;3.58;1.42;;;;;;;25.86;28.32;95641.84;5009479;28;20357;-35
2022/02/21 07:01:39;;;;;;;2.60;1.15;;;;;;;25.85;28.34;95629.66;5008471;28;20060;-32
2022/02/21 07:04:04;;;;;;;3.17;1.50;;;;;;;25.85;28.28;95648.03;5004830;28;20022;-36
2022/02/21 07:06:31;;;;;;;1.77;1.27;;;;;;;25.85;28.40;95640.16;5008597;28;20026;-31
2022/02/21 07:08:56;;;;;;;2.97;1.38;;;;;;;25.83;28.30;95643.72;5008451;28;20025;-32
2022/02/21 07:11:22;;;;;;;1.90;1.23;;;;;;;25.84;28.24;95647.19;5004830;28;20036;-33
2022/02/21 07:13:47;;;;;;;2.72;1.30;;;;;;;25.85;28.22;95653.28;5008944;28;20026;-32
2022/02/21 07:16:12;;;;;;;3.08;1.50;;;;;;;25.85;28.27;95661.16;5008991;28;20045;-32
2022/02/21 07:18:38;;;;;;;2.28;1.27;;;;;;;25.84;28.33;95660.31;5012404;28;20395;-32
2022/02/21 07:21:04;;;;;;;3.13;1.40;;;;;;;25.85;28.24;95663.78;5006885;28;20115;-31
2022/02/21 07:23:30;;;;;;;4.22;1.50;;;;;;;25.85;28.27;95655.91;5009126;28;20059;-31
2022/02/21 07:25:56;;;;;;;4.07;1.70;;;;;;;25.86;28.12;95647.09;5006236;28;20039;-32
2022/02/21 07:28:21;;;;;;;4.03;1.67;;;;;;;25.86;28.15;95652.34;5006622;28;20025;-30
2022/02/21 07:30:47;;;;;;;6.78;1.45;;;;;;;25.86;28.25;95660.22;5004869;28;20172;-33
2022/02/21 07:33:12;;;;;;;8.65;1.67;;;;;;;25.88;28.04;95666.16;5006318;28;20034;-36
2022/02/21 07:35:37;;;;;;;5.82;1.75;;;;;;;25.87;28.00;95670.59;5000023;28;20091;-33
2022/02/21 07:38:04;;;;;;;5.57;1.85;;;;;;;25.88;27.99;95688.00;5009186;28;20462;-32
2022/02/21 07:40:30;;;;;;;8.80;2.20;;;;;;;25.90;27.99;95682.66;5006522;28;20033;-31
2022/02/21 07:42:55;;;;;;;8.85;2.60;;;;;;;25.87;27.75;95691.59;5003777;28;20029;-34
2022/02/21 07:45:21;;;;;;;9.38;2.80;;;;;;;25.91;27.54;95702.72;5003588;28;20351;-32
2022/02/21 07:47:57;;;;;;;7.78;2.67;;;;;;;25.92;27.66;95701.75;4982713;28;20876;-31
2022/02/21 07:50:23;;;;;;;15.93;2.83;;;;;;;25.93;27.61;95700.81;4992098;28;20160;-34
2022/02/21 07:52:49;;;;;;;14.35;3.00;;;;;;;25.94;27.49;95698.06;5000277;28;20029;-30
2022/02/21 07:55:14;;;;;;;7.68;3.08;;;;;;;25.96;27.49;95700.59;5000581;28;20032;-33
2022/02/21 07:57:43;;;;;;;8.27;3.10;;;;;;;25.98;27.48;95700.47;4999737;28;20025;-32
2022/02/21 08:00:10;;;;;;;12.30;3.00;;;;;;;25.98;27.36;95692.59;5000292;28;20037;-32
2022/02/21 08:02:36;;;;;;;8.15;3.20;;;;;;;25.99;27.40;95695.13;5001152;28;20346;-33
2022/02/21 08:05:02;;;;;;;9.75;3.33;;;;;;;26.01;27.30;95697.66;5001796;28;20396;-32
2022/02/21 08:07:27;;;;;;;9.68;3.05;;;;;;;26.01;27.21;95695.84;4998594;28;20030;-33
2022/02/21 08:09:53;;;;;;;7.95;3.03;;;;;;;26.02;27.14;95697.53;5000401;28;20052;-35
2022/02/21 08:12:18;;;;;;;10.20;3.13;;;;;;;26.04;27.37;95703.50;4999475;28;20026;-35
2022/02/21 08:14:44;;;;;;;4.43;2.33;;;;;;;26.05;27.13;95715.69;5001041;28;20943;-30
2022/02/21 08:17:09;;;;;;;8.02;2.92;;;;;;;26.06;27.15;95721.78;5000982;28;20025;-32
2022/02/21 08:19:35;;;;;;;8.73;2.97;;;;;;;26.07;26.93;95723.44;5001357;28;20604;-31
2022/02/21 08:22:00;;;;;;;22.15;3.20;;;;;;;26.07;26.98;95723.44;4999482;28;20515;-31
2022/02/21 08:24:25;;;;;;;5.65;2.60;;;;;;;26.09;26.86;95727.63;4999228;28;20026;-36
2022/02/21 08:26:51;;;;;;;5.65;2.72;;;;;;;26.10;26.81;95724.06;4997892;28;20037;-33
2022/02/21 08:29:16;;;;;;;7.10;2.85;;;;;;;26.12;26.62;95725.75;5001962;28;20033;-33
2022/02/21 08:31:44;;;;;;;6.55;2.72;;;;;;;26.13;26.63;95730.06;5001579;28;20586;-33
2022/02/21 08:34:10;;;;;;;8.15;2.88;;;;;;;26.12;26.82;95731.00;4997000;28;20032;-34
2022/02/21 08:36:35;;;;;;;9.13;2.80;;;;;;;26.15;26.98;95733.41;5000663;28;20152;-32
2022/02/21 08:39:00;;;;;;;6.93;2.90;;;;;;;26.16;26.97;95745.59;5004316;28;20037;-35
2022/02/21 08:41:26;;;;;;;10.75;3.15;;;;;;;26.17;27.12;95755.16;4998905;28;20411;-30
2022/02/21 08:43:51;;;;;;;6.95;2.72;;;;;;;26.17;27.27;95766.50;4998511;28;20037;-30
2022/02/21 08:46:17;;;;;;;9.32;2.80;;;;;;;26.18;27.24;95768.19;4998693;28;20029;-30
2022/02/21 08:48:42;;;;;;;9.68;3.00;;;;;;;26.20;27.36;95792.53;5000026;28;20033;-29
2022/02/21 08:51:08;;;;;;;6.85;2.88;;;;;;;26.21;27.43;95796.00;5002144;28;20760;-34
2022/02/21 08:53:33;;;;;;;5.07;2.53;;;;;;;26.21;27.28;95788.13;4997676;28;20060;-30
2022/02/21 08:55:59;;;;;;;7.95;2.60;;;;;;;26.22;27.36;95805.56;5000242;28;20030;-30
2022/02/21 08:58:24;;;;;;;5.30;2.55;;;;;;;26.24;27.49;95808.94;4998277;28;20038;-34
2022/02/21 09:00:49;;;;;;;7.60;2.95;;;;;;;26.24;27.43;95803.66;5003755;28;20029;-32
2022/02/21 09:03:15;;;;;;;8.38;2.72;;;;;;;26.24;27.36;95793.16;5000395;28;20099;-34
2022/02/21 09:05:40;;;;;;;7.40;2.90;;;;;;;26.26;27.47;95779.94;4984499;28;22104;-31
2022/02/21 09:08:06;;;;;;;7.72;2.60;;;;;;;26.26;27.40;95788.66;4982885;28;20099;-32
2022/02/21 09:10:32;;;;;;;4.80;2.25;;;;;;;26.27;27.36;95785.09;4978413;28;20472;-36
2022/02/21 09:12:58;;;;;;;5.25;2.58;;;;;;;26.28;27.51;95789.38;5000569;28;20029;-31
2022/02/21 09:15:24;;;;;;;7.72;3.08;;;;;;;26.28;27.53;95791.19;5005761;28;20140;-32
2022/02/21 09:17:49;;;;;;;13.50;2.80;;;;;;;26.28;26.99;95784.13;4975863;28;20021;-31
2022/02/21 09:20:15;;;;;;;10.73;2.58;;;;;;;26.27;27.08;95782.44;5002312;28;20041;-29
2022/02/21 09:22:41;;;;;;;9.57;2.33;;;;;;;26.29;27.16;95785.81;5002538;28;20029;-32
2022/02/21 09:25:07;;;;;;;6.53;2.72;;;;;;;26.29;27.17;95783.19;5003500;28;20052;-30
2022/02/21 09:27:32;;;;;;;7.05;2.20;;;;;;;26.28;27.24;95781.50;4997150;28;20060;-31
2022/02/21 09:29:58;;;;;;;7.20;2.30;;;;;;;26.30;27.40;95787.50;5003743;28;20119;-31
2022/02/21 09:32:23;;;;;;;6.18;2.72;;;;;;;26.28;27.45;95785.94;5000410;28;20033;-28
2022/02/21 09:34:49;;;;;;;6.20;2.65;;;;;;;26.31;27.49;95786.53;5003179;28;20034;-32
2022/02/21 09:37:14;;;;;;;5.72;2.40;;;;;;;26.31;27.55;95794.41;4995760;28;20025;-31
2022/02/21 09:39:40;;;;;;;7.40;2.70;;;;;;;26.31;27.36;95794.41;4999421;28;20894;-32
2022/02/21 09:42:05;;;;;;;13.93;2.65;;;;;;;26.33;27.27;95792.53;4985505;28;20107;-32
2022/02/21 09:44:31;;;;;;;18.42;2.95;;;;;;;26.32;27.17;95780.34;5002986;28;20908;-33
2022/02/21 09:46:57;;;;;;;7.30;2.42;;;;;;;26.33;27.03;95807.44;4992809;28;20038;-30
2022/02/21 09:49:22;;;;;;;5.78;2.42;;;;;;;26.31;26.87;95791.78;4992232;28;20032;-31
2022/02/21 09:51:47;;;;;;;7.25;2.40;;;;;;;26.23;22.97;95796.72;5008672;28;20034;-32
2022/02/21 09:54:13;;;;;;;9.68;3.13;;;;;;;26.00;20.67;95796.56;5010461;28;20108;-31
2022/02/21 09:56:40;;;;;;;9.60;3.35;;;;;;;25.75;21.62;95793.03;5010186;28;20476;-32
2022/02/21 09:59:06;;;;;;;12.02;3.03;;;;;;;25.60;21.84;95784.41;4998092;28;20110;-30
2022/02/21 10:01:31;;;;;;;11.73;2.75;;;;;;;25.50;22.30;95789.41;5017285;28;20042;-34
2022/02/21 10:03:57;;;;;;;8.30;2.65;;;;;;;25.44;22.45;95805.56;5015492;28;20060;-31
2022/02/21 10:06:27;;;;;;;8.32;2.80;;;;;;;25.42;23.04;95794.34;5014339;28;20029;-31
2022/02/21 10:09:00;;;;;;;10.07;2.90;;;;;;;25.40;23.25;95798.84;5017443;28;20113;-29
2022/02/21 10:11:29;;;;;;;10.35;3.15;;;;;;;25.43;23.46;95793.38;4995790;28;20083;-37
2022/02/21 10:13:59;;;;;;;7.93;3.20;;;;;;;25.45;23.71;95791.50;5006969;28;20145;-33
2022/02/21 10:16:25;;;;;;;7.20;2.53;;;;;;;25.49;23.90;95792.13;5014241;28;20470;-32
2022/02/21 10:19:07;;;;;;;7.90;2.83;;;;;;;25.52;23.90;95776.19;4996865;28;20373;-32
2022/02/21 10:22:10;;;;;;;10.45;2.95;;;;;;;25.56;24.16;95770.66;5010270;28;20040;-33
2022/02/21 10:24:41;;;;;;;9.90;2.72;;;;;;;25.61;24.23;95759.00;4958839;28;20062;-32
2022/02/21 10:27:21;;;;;;;7.80;2.87;;;;;;;25.65;24.37;95755.22;5005256;28;20183;-33
2022/02/21 10:29:50;;;;;;;7.35;2.67;;;;;;;25.69;24.55;95746.19;5014401;28;20280;-31
2022/02/21 10:32:23;;;;;;;9.05;2.95;;;;;;;25.72;24.56;95750.38;5014201;28;20077;-32
2022/02/21 10:34:49;;;;;;;7.50;2.90;;;;;;;25.74;24.64;95738.84;4997936;28;20028;-31
2022/02/21 10:37:19;;;;;;;7.45;2.60;;;;;;;25.78;24.75;95729.81;5009974;28;20037;-30
2022/02/21 10:39:45;;;;;;;6.72;2.35;;;;;;;25.81;24.75;95724.34;5014142;28;20025;-31
2022/02/21 10:42:10;;;;;;;6.97;2.80;;;;;;;25.84;24.28;95733.78;4988683;28;20084;-31
2022/02/21 10:44:39;;;;;;;6.03;2.65;;;;;;;25.85;24.50;95718.91;5008199;28;21527;-32
2022/02/21 10:47:05;;;;;;;7.43;2.53;;;;;;;25.87;24.71;95717.00;5008830;28;20025;-33
2022/02/21 10:49:32;;;;;;;6.40;2.38;;;;;;;25.89;24.88;95715.94;5006941;28;20446;-32
2022/02/21 10:51:58;;;;;;;8.20;2.83;;;;;;;25.91;24.83;95724.56;5015485;28;20115;-32
2022/02/21 10:54:37;;;;;;;9.23;3.22;;;;;;;25.94;24.89;95718.25;5013089;28;20583;-32
2022/02/21 10:57:07;;;;;;;9.20;3.20;;;;;;;25.96;24.98;95705.84;4995918;28;20095;-31
2022/02/21 10:59:32;;;;;;;12.73;3.38;;;;;;;25.97;25.15;95712.75;4996635;28;20127;-30
2022/02/21 11:01:58;;;;;;;13.68;4.10;;;;;;;25.99;25.20;95710.88;5017138;28;20636;-31
2022/02/21 11:04:24;;;;;;;14.85;3.60;;;;;;;26.03;25.27;95724.63;5015920;28;20037;-32
2022/02/21 11:06:50;;;;;;;12.23;3.55;;;;;;;26.04;25.26;95729.75;5009460;28;20034;-29
2022/02/21 11:09:16;;;;;;;19.00;3.78;;;;;;;26.06;25.42;95727.03;5000729;28;20728;-35
2022/02/21 11:11:48;;;;;;;13.60;4.25;;;;;;;26.07;25.43;95737.44;4987243;28;20056;-30
2022/02/21 11:14:17;;;;;;;;;;;;;;;26.09;25.47;95727.63;4985811;28;21153;-31
2022/02/21 11:16:42;;;;;;;14.05;3.60;;;;;;;26.13;25.43;95730.06;4999053;28;20387;-31
2022/02/21 11:19:08;;;;;;;11.23;3.67;;;;;;;26.13;25.53;95737.94;5002658;28;20037;-33
2022/02/21 11:21:34;;;;;;;16.83;3.85;;;;;;;26.14;25.56;95721.22;4987077;28;20092;-32
2022/02/21 11:24:01;;;;;;;12.68;3.80;;;;;;;26.15;25.57;95720.28;5002425;28;20064;-31
2022/02/21 11:26:28;;;;;;;11.35;3.40;;;;;;;26.16;25.74;95707.03;5002454;28;20028;-31